This demonstration page uses our WeatherBlox Daily Observations layout. Learn more.

39.92423, -83.80882

Hourly Observations for December 28, 2017

Temp ( °F °C ) Dew Point ( °F °C ) Humidity (%) Winds ( mph kmh ) Pressure ( in mb ) Visibility ( mi km ) Precip ( " mm )
12:56 am 00:56 Clear 2 -16.7 -2 -18.9 83 83 Calm 30.71 1040 10 16.0934 0 0
1:56 am 01:56 Clear 2 -16.7 -2 -18.9 83 83 Calm 30.7 1040 10 16.0934 0 0
2:56 am 02:56 Clear 2 -16.7 -1 -18.3 88 88 Calm 30.71 1040 10 16.0934 0 0
3:56 am 03:56 Clear 4 -15.6 0 -17.8 83 83 Calm 30.73 1041 10 16.0934 0 0
4:56 am 04:56 Clear 4 -15.6 1 -17.2 88 88 NE 7 11 30.69 1039 10 16.0934 0 0
5:56 am 05:56 Partly Cloudy 4 -15.6 0 -17.8 83 83 Calm 30.71 1040 10 16.0934 0 0
6:56 am 06:56 Cloudy 6 -14.4 2 -16.7 83 83 NNW 3 6 30.73 1041 10 16.0934 0 0
7:56 am 07:56 Mostly Cloudy 5 -15 2 -16.7 87 87 Calm 30.73 1041 10 16.0934 0 0
8:56 am 08:56 Cloudy 7 -13.9 3 -16.1 84 84 E 7 11 30.72 1040 10 16.0934 0 0
9:56 am 09:56 Cloudy 9 -12.8 4 -15.6 80 80 E 9 15 30.7 1040 10 16.0934 0 0
10:56 am 10:56 Cloudy 10 -12.2 3 -16.1 73 73 E 9 15 30.72 1040 10 16.0934 0 0
11:56 am 11:56 Cloudy 12 -11.1 3 -16.1 67 67 E 7 11 30.68 1039 10 16.0934 0 0
12:56 pm 12:56 Cloudy 13 -10.6 4 -15.6 67 67 ESE 10 17 30.63 1037 10 16.0934 0 0
1:56 pm 13:56 Partly Cloudy 15 -9.4 4 -15.6 61 61 ESE 12 19 30.59 1036 10 16.0934 0 0
2:56 pm 14:56 Mostly Cloudy 16 -8.9 6 -14.4 65 65 SE 12 19 30.56 1035 10 16.0934 0 0
3:56 pm 15:56 Sunny 15 -9.4 4 -15.6 61 61 SE 9 15 30.54 1034 10 16.0934 0 0
4:56 pm 16:56 Partly Cloudy 13 -10.6 5 -15 70 70 ESE 8 13 30.52 1034 10 16.0934 0 0
5:56 pm 17:56 Mostly Cloudy 12 -11.1 4 -15.6 70 70 ESE 7 11 30.5 1033 10 16.0934 0 0
6:56 pm 18:56 Mostly Cloudy 12 -11.1 5 -15 73 73 SE 5 7 30.5 1033 10 16.0934 0 0
7:56 pm 19:56 Mostly Cloudy 10 -12.2 5 -15 80 80 NE 3 6 30.49 1033 10 16.0934 0 0
8:56 pm 20:56 Cloudy 13 -10.6 6 -14.4 74 74 N 5 7 30.5 1033 10 16.0934 0 0
9:56 pm 21:56 Cloudy 14 -10 6 -14.4 71 71 ESE 9 15 30.44 1031 10 16.0934 0 0
10:56 pm 22:56 Cloudy 12 -11.1 6 -14.4 77 77 SE 7 11 30.42 1030 10 16.0934 0 0
11:56 pm 23:56 Cloudy 12 -11.1 6 -14.4 77 77 Calm 30.41 1030 10 16.0934 0 0

Powered by AerisWeather